KMCE/MCE METAR and TAF weather

Enter ICAO airport designator
Station Type Date Time Source
KMCE METAR 2020/07/04 00:53 UTC NOAA

KMCE 040053Z AUTO 32009KT 10SM CLR 34/08 A2991 RMK AO2 SLP127 T03390083


Station Type Date Time Source
KMCE Decoded METAR 2020/07/04 00:53 UTC NOAA

MERCED MUNICIPAL AIRPORT, CA, United States (KMCE) 37-17N 120-30W 47M
Jul 03, 2020 - 08:53 PM EDT / 2020.07.04 0053 UTC
Wind: from the NW (320 degrees) at 10 MPH (9 KT):0
Visibility: 10 mile(s):0
Sky conditions: clear
Temperature: 93.0 F (33.9 C)
Dew Point: 46.9 F (8.3 C)
Relative Humidity: 20%
Pressure (altimeter): 29.91 in. Hg (1012 hPa)
ob: KMCE 040053Z AUTO 32009KT 10SM CLR 34/08 A2991 RMK AO2 SLP127 T03390083
cycle: 1

Station Type Date Time Source
KMCE TAF 2020/07/03 18:22 UTC NOAA

TAF KMCE 031720Z 0318/0418 34007KT P6SM SKC

Example: see airport list